sensor_id;sensor_type;location;lat;lon;timestamp;P1;durP1;ratioP1;P2;durP2;ratioP2
79330;SDS011;68797;49.782;19.054;2024-01-30T00:00:29;19.92;;;7.82;;
79330;SDS011;68797;49.782;19.054;2024-01-30T00:03:17;15.02;;;6.82;;
79330;SDS011;68797;49.782;19.054;2024-01-30T00:05:45;17.35;;;7.65;;
79330;SDS011;68797;49.782;19.054;2024-01-30T00:08:12;20.67;;;8.48;;
79330;SDS011;68797;49.782;19.054;2024-01-30T00:10:40;18.92;;;8.32;;
79330;SDS011;68797;49.782;19.054;2024-01-30T00:13:07;20.88;;;8.02;;
79330;SDS011;68797;49.782;19.054;2024-01-30T00:15:34;21.33;;;8.07;;
79330;SDS011;68797;49.782;19.054;2024-01-30T00:18:00;17.83;;;7.47;;
79330;SDS011;68797;49.782;19.054;2024-01-30T00:20:28;17.27;;;7.57;;
79330;SDS011;68797;49.782;19.054;2024-01-30T00:22:57;14.27;;;6.65;;
79330;SDS011;68797;49.782;19.054;2024-01-30T00:25:23;10.10;;;5.95;;
79330;SDS011;68797;49.782;19.054;2024-01-30T00:27:52;19.63;;;7.80;;
79330;SDS011;68797;49.782;19.054;2024-01-30T00:30:19;13.65;;;5.93;;
79330;SDS011;68797;49.782;19.054;2024-01-30T00:32:46;14.75;;;6.65;;
79330;SDS011;68797;49.782;19.054;2024-01-30T00:35:13;15.73;;;6.43;;
79330;SDS011;68797;49.782;19.054;2024-01-30T00:37:40;15.38;;;6.63;;
79330;SDS011;68797;49.782;19.054;2024-01-30T00:40:08;16.80;;;6.38;;
79330;SDS011;68797;49.782;19.054;2024-01-30T00:42:36;18.75;;;6.80;;
79330;SDS011;68797;49.782;19.054;2024-01-30T00:45:04;15.00;;;6.55;;
79330;SDS011;68797;49.782;19.054;2024-01-30T00:47:30;17.08;;;6.28;;
79330;SDS011;68797;49.782;19.054;2024-01-30T00:50:00;9.57;;;5.07;;
79330;SDS011;68797;49.782;19.054;2024-01-30T00:52:27;16.08;;;6.45;;
79330;SDS011;68797;49.782;19.054;2024-01-30T00:54:54;14.48;;;6.30;;
79330;SDS011;68797;49.782;19.054;2024-01-30T00:57:22;14.95;;;6.10;;
79330;SDS011;68797;49.782;19.054;2024-01-30T00:59:49;14.85;;;5.88;;
79330;SDS011;68797;49.782;19.054;2024-01-30T01:02:17;12.05;;;5.25;;
79330;SDS011;68797;49.782;19.054;2024-01-30T01:04:44;12.30;;;5.25;;
79330;SDS011;68797;49.782;19.054;2024-01-30T01:07:11;12.25;;;5.00;;
79330;SDS011;68797;49.782;19.054;2024-01-30T01:09:38;16.50;;;5.88;;
79330;SDS011;68797;49.782;19.054;2024-01-30T01:12:04;14.88;;;6.35;;
79330;SDS011;68797;49.782;19.054;2024-01-30T01:14:31;9.70;;;5.50;;
79330;SDS011;68797;49.782;19.054;2024-01-30T01:16:58;14.77;;;6.13;;
79330;SDS011;68797;49.782;19.054;2024-01-30T01:19:24;16.88;;;7.18;;
79330;SDS011;68797;49.782;19.054;2024-01-30T01:21:51;10.98;;;6.18;;
79330;SDS011;68797;49.782;19.054;2024-01-30T01:24:17;13.23;;;5.85;;
79330;SDS011;68797;49.782;19.054;2024-01-30T01:26:45;10.00;;;4.60;;
79330;SDS011;68797;49.782;19.054;2024-01-30T01:29:12;14.60;;;6.28;;
79330;SDS011;68797;49.782;19.054;2024-01-30T01:31:40;12.70;;;6.38;;
79330;SDS011;68797;49.782;19.054;2024-01-30T01:34:10;11.50;;;5.15;;
79330;SDS011;68797;49.782;19.054;2024-01-30T01:36:37;10.20;;;5.25;;
79330;SDS011;68797;49.782;19.054;2024-01-30T01:39:04;10.32;;;5.28;;
79330;SDS011;68797;49.782;19.054;2024-01-30T01:41:31;11.10;;;5.07;;
79330;SDS011;68797;49.782;19.054;2024-01-30T01:43:58;11.82;;;5.22;;
79330;SDS011;68797;49.782;19.054;2024-01-30T01:46:26;11.63;;;5.50;;
79330;SDS011;68797;49.782;19.054;2024-01-30T01:48:56;11.68;;;5.95;;
79330;SDS011;68797;49.782;19.054;2024-01-30T01:53:51;13.60;;;5.30;;
79330;SDS011;68797;49.782;19.054;2024-01-30T01:56:18;15.73;;;6.45;;
79330;SDS011;68797;49.782;19.054;2024-01-30T01:58:45;10.52;;;5.60;;
79330;SDS011;68797;49.782;19.054;2024-01-30T02:01:14;9.48;;;4.93;;
79330;SDS011;68797;49.782;19.054;2024-01-30T02:03:46;11.13;;;5.10;;
79330;SDS011;68797;49.782;19.054;2024-01-30T02:06:13;12.55;;;5.07;;
79330;SDS011;68797;49.782;19.054;2024-01-30T02:08:41;8.77;;;4.75;;
79330;SDS011;68797;49.782;19.054;2024-01-30T02:11:08;10.25;;;5.00;;
79330;SDS011;68797;49.782;19.054;2024-01-30T02:16:05;12.57;;;4.97;;
79330;SDS011;68797;49.782;19.054;2024-01-30T02:18:32;8.93;;;4.45;;
79330;SDS011;68797;49.782;19.054;2024-01-30T02:21:18;13.63;;;5.47;;
79330;SDS011;68797;49.782;19.054;2024-01-30T02:23:49;9.85;;;4.63;;
79330;SDS011;68797;49.782;19.054;2024-01-30T02:26:17;12.32;;;5.47;;
79330;SDS011;68797;49.782;19.054;2024-01-30T02:28:45;10.18;;;4.97;;
79330;SDS011;68797;49.782;19.054;2024-01-30T02:31:12;9.50;;;4.85;;
79330;SDS011;68797;49.782;19.054;2024-01-30T02:33:40;7.32;;;3.85;;
79330;SDS011;68797;49.782;19.054;2024-01-30T02:36:09;10.57;;;4.15;;
79330;SDS011;68797;49.782;19.054;2024-01-30T02:38:36;11.80;;;4.82;;
79330;SDS011;68797;49.782;19.054;2024-01-30T02:41:04;7.60;;;4.30;;
79330;SDS011;68797;49.782;19.054;2024-01-30T02:43:30;9.20;;;4.40;;
79330;SDS011;68797;49.782;19.054;2024-01-30T02:45:58;8.25;;;4.32;;
79330;SDS011;68797;49.782;19.054;2024-01-30T02:48:28;8.18;;;4.25;;
79330;SDS011;68797;49.782;19.054;2024-01-30T02:50:54;9.18;;;4.63;;
79330;SDS011;68797;49.782;19.054;2024-01-30T02:53:21;8.55;;;4.13;;
79330;SDS011;68797;49.782;19.054;2024-01-30T02:55:48;9.52;;;4.47;;
79330;SDS011;68797;49.782;19.054;2024-01-30T02:58:15;8.70;;;3.63;;
79330;SDS011;68797;49.782;19.054;2024-01-30T03:00:42;8.30;;;3.67;;
79330;SDS011;68797;49.782;19.054;2024-01-30T03:03:09;8.95;;;3.63;;
79330;SDS011;68797;49.782;19.054;2024-01-30T03:05:36;8.30;;;3.72;;
79330;SDS011;68797;49.782;19.054;2024-01-30T03:08:04;5.72;;;3.78;;
79330;SDS011;68797;49.782;19.054;2024-01-30T03:10:31;6.05;;;3.50;;
79330;SDS011;68797;49.782;19.054;2024-01-30T03:12:57;6.05;;;3.67;;
79330;SDS011;68797;49.782;19.054;2024-01-30T03:15:23;7.38;;;3.55;;
79330;SDS011;68797;49.782;19.054;2024-01-30T03:17:52;8.70;;;3.70;;
79330;SDS011;68797;49.782;19.054;2024-01-30T03:20:19;4.78;;;2.95;;
79330;SDS011;68797;49.782;19.054;2024-01-30T03:22:45;6.85;;;3.00;;
79330;SDS011;68797;49.782;19.054;2024-01-30T03:25:13;5.60;;;2.92;;
79330;SDS011;68797;49.782;19.054;2024-01-30T03:27:41;8.45;;;3.40;;
79330;SDS011;68797;49.782;19.054;2024-01-30T03:30:08;8.55;;;3.92;;
79330;SDS011;68797;49.782;19.054;2024-01-30T03:32:35;9.93;;;4.07;;
79330;SDS011;68797;49.782;19.054;2024-01-30T03:35:02;9.05;;;4.15;;
79330;SDS011;68797;49.782;19.054;2024-01-30T03:37:30;8.20;;;3.92;;
79330;SDS011;68797;49.782;19.054;2024-01-30T03:39:56;6.25;;;3.72;;
79330;SDS011;68797;49.782;19.054;2024-01-30T03:42:23;7.45;;;3.92;;
79330;SDS011;68797;49.782;19.054;2024-01-30T03:44:49;12.02;;;4.57;;
79330;SDS011;68797;49.782;19.054;2024-01-30T03:47:20;9.35;;;3.95;;
79330;SDS011;68797;49.782;19.054;2024-01-30T03:49:47;8.18;;;3.53;;
79330;SDS011;68797;49.782;19.054;2024-01-30T03:52:13;5.88;;;2.75;;
79330;SDS011;68797;49.782;19.054;2024-01-30T03:54:40;7.10;;;3.85;;
79330;SDS011;68797;49.782;19.054;2024-01-30T03:57:08;10.00;;;3.97;;
79330;SDS011;68797;49.782;19.054;2024-01-30T03:59:35;8.90;;;4.45;;
79330;SDS011;68797;49.782;19.054;2024-01-30T04:02:02;9.23;;;4.07;;
79330;SDS011;68797;49.782;19.054;2024-01-30T04:04:29;8.93;;;4.47;;
79330;SDS011;68797;49.782;19.054;2024-01-30T04:06:56;8.02;;;3.40;;
79330;SDS011;68797;49.782;19.054;2024-01-30T04:09:22;8.15;;;3.42;;
79330;SDS011;68797;49.782;19.054;2024-01-30T04:11:48;8.30;;;3.80;;
79330;SDS011;68797;49.782;19.054;2024-01-30T04:14:15;9.68;;;4.10;;
79330;SDS011;68797;49.782;19.054;2024-01-30T04:16:42;9.15;;;3.60;;
79330;SDS011;68797;49.782;19.054;2024-01-30T04:19:08;6.68;;;3.38;;
79330;SDS011;68797;49.782;19.054;2024-01-30T04:24:03;6.53;;;3.65;;
79330;SDS011;68797;49.782;19.054;2024-01-30T04:26:30;9.65;;;4.38;;
79330;SDS011;68797;49.782;19.054;2024-01-30T04:28:56;7.85;;;3.90;;
79330;SDS011;68797;49.782;19.054;2024-01-30T04:31:23;7.28;;;4.28;;
79330;SDS011;68797;49.782;19.054;2024-01-30T04:33:50;11.50;;;4.85;;
79330;SDS011;68797;49.782;19.054;2024-01-30T04:38:44;7.15;;;3.92;;
79330;SDS011;68797;49.782;19.054;2024-01-30T04:41:11;8.85;;;4.13;;
79330;SDS011;68797;49.782;19.054;2024-01-30T04:43:39;10.32;;;4.68;;
79330;SDS011;68797;49.782;19.054;2024-01-30T04:46:09;8.82;;;4.13;;
79330;SDS011;68797;49.782;19.054;2024-01-30T04:48:43;8.70;;;3.95;;
79330;SDS011;68797;49.782;19.054;2024-01-30T04:51:21;10.77;;;5.15;;
79330;SDS011;68797;49.782;19.054;2024-01-30T04:53:51;9.82;;;3.97;;
79330;SDS011;68797;49.782;19.054;2024-01-30T04:56:28;9.77;;;4.72;;
79330;SDS011;68797;49.782;19.054;2024-01-30T04:59:02;22.98;;;7.90;;
79330;SDS011;68797;49.782;19.054;2024-01-30T05:01:32;9.48;;;4.90;;
79330;SDS011;68797;49.782;19.054;2024-01-30T05:04:19;29.00;;;9.88;;
79330;SDS011;68797;49.782;19.054;2024-01-30T05:06:57;20.35;;;6.40;;
79330;SDS011;68797;49.782;19.054;2024-01-30T05:09:28;16.52;;;6.45;;
79330;SDS011;68797;49.782;19.054;2024-01-30T05:12:06;7.22;;;3.78;;
79330;SDS011;68797;49.782;19.054;2024-01-30T05:15:00;9.90;;;4.93;;
79330;SDS011;68797;49.782;19.054;2024-01-30T05:17:37;8.80;;;5.13;;
79330;SDS011;68797;49.782;19.054;2024-01-30T05:20:13;9.02;;;5.53;;
79330;SDS011;68797;49.782;19.054;2024-01-30T05:22:55;10.18;;;4.78;;
79330;SDS011;68797;49.782;19.054;2024-01-30T05:25:28;10.70;;;5.53;;
79330;SDS011;68797;49.782;19.054;2024-01-30T05:28:15;7.85;;;4.65;;
79330;SDS011;68797;49.782;19.054;2024-01-30T05:30:49;9.18;;;5.47;;
79330;SDS011;68797;49.782;19.054;2024-01-30T05:33:18;9.02;;;4.40;;
79330;SDS011;68797;49.782;19.054;2024-01-30T05:36:03;13.68;;;4.63;;
79330;SDS011;68797;49.782;19.054;2024-01-30T05:38:37;12.27;;;5.03;;
79330;SDS011;68797;49.782;19.054;2024-01-30T05:41:20;8.70;;;4.55;;
79330;SDS011;68797;49.782;19.054;2024-01-30T05:43:51;11.70;;;4.90;;
79330;SDS011;68797;49.782;19.054;2024-01-30T05:46:31;9.27;;;4.25;;
79330;SDS011;68797;49.782;19.054;2024-01-30T05:49:15;11.85;;;5.03;;
79330;SDS011;68797;49.782;19.054;2024-01-30T05:52:03;7.47;;;4.22;;
79330;SDS011;68797;49.782;19.054;2024-01-30T05:54:45;7.90;;;3.75;;
79330;SDS011;68797;49.782;19.054;2024-01-30T05:57:22;7.82;;;4.35;;
79330;SDS011;68797;49.782;19.054;2024-01-30T05:59:52;6.57;;;4.03;;
79330;SDS011;68797;49.782;19.054;2024-01-30T06:02:29;9.90;;;4.57;;
79330;SDS011;68797;49.782;19.054;2024-01-30T06:05:04;9.15;;;4.32;;
79330;SDS011;68797;49.782;19.054;2024-01-30T06:07:35;8.07;;;4.13;;
79330;SDS011;68797;49.782;19.054;2024-01-30T06:10:09;12.77;;;5.95;;
79330;SDS011;68797;49.782;19.054;2024-01-30T06:12:43;8.35;;;3.88;;
79330;SDS011;68797;49.782;19.054;2024-01-30T06:15:40;8.65;;;4.40;;
79330;SDS011;68797;49.782;19.054;2024-01-30T06:18:12;12.43;;;4.93;;
79330;SDS011;68797;49.782;19.054;2024-01-30T06:20:43;10.10;;;4.10;;
79330;SDS011;68797;49.782;19.054;2024-01-30T06:23:14;8.63;;;4.78;;
79330;SDS011;68797;49.782;19.054;2024-01-30T06:25:57;8.13;;;3.80;;
79330;SDS011;68797;49.782;19.054;2024-01-30T06:28:40;8.80;;;4.25;;
79330;SDS011;68797;49.782;19.054;2024-01-30T06:31:25;9.43;;;4.32;;
79330;SDS011;68797;49.782;19.054;2024-01-30T06:34:00;12.00;;;4.88;;
79330;SDS011;68797;49.782;19.054;2024-01-30T06:36:30;7.82;;;4.20;;
79330;SDS011;68797;49.782;19.054;2024-01-30T06:39:12;9.00;;;4.38;;
79330;SDS011;68797;49.782;19.054;2024-01-30T06:41:42;11.35;;;4.53;;
79330;SDS011;68797;49.782;19.054;2024-01-30T06:44:30;8.20;;;4.43;;
79330;SDS011;68797;49.782;19.054;2024-01-30T06:47:04;9.48;;;4.88;;
79330;SDS011;68797;49.782;19.054;2024-01-30T06:50:13;7.80;;;3.72;;
79330;SDS011;68797;49.782;19.054;2024-01-30T06:52:45;9.30;;;4.72;;
79330;SDS011;68797;49.782;19.054;2024-01-30T06:55:23;12.38;;;4.38;;
79330;SDS011;68797;49.782;19.054;2024-01-30T06:58:03;10.25;;;3.92;;
79330;SDS011;68797;49.782;19.054;2024-01-30T07:00:37;7.93;;;4.30;;
79330;SDS011;68797;49.782;19.054;2024-01-30T07:03:26;6.78;;;4.10;;
79330;SDS011;68797;49.782;19.054;2024-01-30T07:06:09;8.77;;;3.83;;
79330;SDS011;68797;49.782;19.054;2024-01-30T07:08:46;8.15;;;3.95;;
79330;SDS011;68797;49.782;19.054;2024-01-30T07:11:21;8.90;;;4.03;;
79330;SDS011;68797;49.782;19.054;2024-01-30T07:14:07;11.32;;;4.22;;
79330;SDS011;68797;49.782;19.054;2024-01-30T07:16:48;8.10;;;4.05;;
79330;SDS011;68797;49.782;19.054;2024-01-30T07:19:20;6.40;;;4.05;;
79330;SDS011;68797;49.782;19.054;2024-01-30T07:22:00;9.00;;;4.47;;
79330;SDS011;68797;49.782;19.054;2024-01-30T07:24:34;7.65;;;4.15;;
79330;SDS011;68797;49.782;19.054;2024-01-30T07:27:25;9.75;;;4.38;;
79330;SDS011;68797;49.782;19.054;2024-01-30T07:30:14;8.48;;;4.05;;
79330;SDS011;68797;49.782;19.054;2024-01-30T07:32:51;8.77;;;4.03;;
79330;SDS011;68797;49.782;19.054;2024-01-30T07:35:20;9.23;;;4.10;;
79330;SDS011;68797;49.782;19.054;2024-01-30T07:37:59;7.75;;;3.53;;
79330;SDS011;68797;49.782;19.054;2024-01-30T07:40:28;7.22;;;3.47;;
79330;SDS011;68797;49.782;19.054;2024-01-30T07:43:05;6.30;;;3.90;;
79330;SDS011;68797;49.782;19.054;2024-01-30T07:45:44;9.23;;;4.50;;
79330;SDS011;68797;49.782;19.054;2024-01-30T07:48:26;7.45;;;3.90;;
79330;SDS011;68797;49.782;19.054;2024-01-30T07:50:56;10.32;;;4.18;;
79330;SDS011;68797;49.782;19.054;2024-01-30T07:53:27;7.43;;;3.90;;
79330;SDS011;68797;49.782;19.054;2024-01-30T07:56:05;9.40;;;3.85;;
79330;SDS011;68797;49.782;19.054;2024-01-30T07:58:41;10.10;;;4.35;;
79330;SDS011;68797;49.782;19.054;2024-01-30T08:01:16;9.73;;;4.03;;
79330;SDS011;68797;49.782;19.054;2024-01-30T08:03:53;7.05;;;3.38;;
79330;SDS011;68797;49.782;19.054;2024-01-30T08:06:30;7.53;;;4.10;;
79330;SDS011;68797;49.782;19.054;2024-01-30T08:09:17;8.80;;;4.13;;
79330;SDS011;68797;49.782;19.054;2024-01-30T08:11:47;8.63;;;4.18;;
79330;SDS011;68797;49.782;19.054;2024-01-30T08:14:30;10.95;;;4.53;;
79330;SDS011;68797;49.782;19.054;2024-01-30T08:17:07;13.30;;;4.93;;
79330;SDS011;68797;49.782;19.054;2024-01-30T08:19:51;12.50;;;5.20;;
79330;SDS011;68797;49.782;19.054;2024-01-30T08:22:24;11.88;;;5.57;;
79330;SDS011;68797;49.782;19.054;2024-01-30T08:25:02;11.40;;;5.28;;
79330;SDS011;68797;49.782;19.054;2024-01-30T08:27:41;9.00;;;4.47;;
79330;SDS011;68797;49.782;19.054;2024-01-30T08:30:15;10.55;;;4.93;;
79330;SDS011;68797;49.782;19.054;2024-01-30T08:32:52;9.07;;;4.63;;
79330;SDS011;68797;49.782;19.054;2024-01-30T08:35:23;11.93;;;5.30;;
79330;SDS011;68797;49.782;19.054;2024-01-30T08:38:03;10.50;;;4.57;;
79330;SDS011;68797;49.782;19.054;2024-01-30T08:40:32;10.05;;;4.15;;
79330;SDS011;68797;49.782;19.054;2024-01-30T08:43:16;24.80;;;8.57;;
79330;SDS011;68797;49.782;19.054;2024-01-30T08:45:46;13.65;;;5.35;;
79330;SDS011;68797;49.782;19.054;2024-01-30T08:48:19;14.15;;;4.82;;
79330;SDS011;68797;49.782;19.054;2024-01-30T08:50:51;9.52;;;5.07;;
79330;SDS011;68797;49.782;19.054;2024-01-30T08:53:35;22.60;;;8.27;;
79330;SDS011;68797;49.782;19.054;2024-01-30T08:56:16;8.23;;;4.10;;
79330;SDS011;68797;49.782;19.054;2024-01-30T08:58:51;9.45;;;4.60;;
79330;SDS011;68797;49.782;19.054;2024-01-30T09:01:24;10.40;;;4.15;;
79330;SDS011;68797;49.782;19.054;2024-01-30T09:04:07;10.52;;;4.30;;
79330;SDS011;68797;49.782;19.054;2024-01-30T09:06:41;7.93;;;4.50;;
79330;SDS011;68797;49.782;19.054;2024-01-30T09:09:19;11.73;;;6.85;;
79330;SDS011;68797;49.782;19.054;2024-01-30T09:11:54;12.00;;;5.32;;
79330;SDS011;68797;49.782;19.054;2024-01-30T09:14:36;10.60;;;4.75;;
79330;SDS011;68797;49.782;19.054;2024-01-30T09:17:09;9.05;;;4.38;;
79330;SDS011;68797;49.782;19.054;2024-01-30T09:19:46;8.38;;;4.70;;
79330;SDS011;68797;49.782;19.054;2024-01-30T09:22:20;8.85;;;5.13;;
79330;SDS011;68797;49.782;19.054;2024-01-30T09:25:12;9.30;;;5.00;;
79330;SDS011;68797;49.782;19.054;2024-01-30T09:30:21;9.10;;;4.85;;
79330;SDS011;68797;49.782;19.054;2024-01-30T09:33:06;8.95;;;4.53;;
79330;SDS011;68797;49.782;19.054;2024-01-30T09:35:38;11.52;;;5.90;;
79330;SDS011;68797;49.782;19.054;2024-01-30T09:38:15;9.68;;;4.35;;
79330;SDS011;68797;49.782;19.054;2024-01-30T09:40:48;7.15;;;3.63;;
79330;SDS011;68797;49.782;19.054;2024-01-30T09:43:35;8.15;;;3.60;;
79330;SDS011;68797;49.782;19.054;2024-01-30T09:46:11;8.90;;;3.92;;
79330;SDS011;68797;49.782;19.054;2024-01-30T09:48:48;9.43;;;4.68;;
79330;SDS011;68797;49.782;19.054;2024-01-30T09:51:35;10.75;;;4.60;;
79330;SDS011;68797;49.782;19.054;2024-01-30T09:54:14;10.55;;;4.85;;
79330;SDS011;68797;49.782;19.054;2024-01-30T09:56:48;10.38;;;3.72;;
79330;SDS011;68797;49.782;19.054;2024-01-30T09:59:42;7.05;;;3.17;;
79330;SDS011;68797;49.782;19.054;2024-01-30T10:02:12;8.40;;;4.38;;
79330;SDS011;68797;49.782;19.054;2024-01-30T10:04:51;7.60;;;4.10;;
79330;SDS011;68797;49.782;19.054;2024-01-30T10:07:24;8.65;;;3.85;;
79330;SDS011;68797;49.782;19.054;2024-01-30T10:09:59;7.85;;;3.40;;
79330;SDS011;68797;49.782;19.054;2024-01-30T10:12:32;6.75;;;3.42;;
79330;SDS011;68797;49.782;19.054;2024-01-30T10:15:07;4.88;;;3.13;;
79330;SDS011;68797;49.782;19.054;2024-01-30T10:17:52;5.05;;;3.53;;
79330;SDS011;68797;49.782;19.054;2024-01-30T10:20:42;9.93;;;3.55;;
79330;SDS011;68797;49.782;19.054;2024-01-30T10:23:14;14.25;;;7.18;;
79330;SDS011;68797;49.782;19.054;2024-01-30T10:26:12;40.03;;;18.85;;
79330;SDS011;68797;49.782;19.054;2024-01-30T10:28:47;28.98;;;13.82;;
79330;SDS011;68797;49.782;19.054;2024-01-30T10:31:25;14.20;;;7.68;;
79330;SDS011;68797;49.782;19.054;2024-01-30T10:34:01;13.10;;;7.32;;
79330;SDS011;68797;49.782;19.054;2024-01-30T10:36:46;15.57;;;7.47;;
79330;SDS011;68797;49.782;19.054;2024-01-30T10:39:21;39.78;;;17.90;;
79330;SDS011;68797;49.782;19.054;2024-01-30T10:41:58;43.47;;;20.55;;
79330;SDS011;68797;49.782;19.054;2024-01-30T10:44:37;44.97;;;21.13;;
79330;SDS011;68797;49.782;19.054;2024-01-30T10:47:17;43.90;;;22.98;;
79330;SDS011;68797;49.782;19.054;2024-01-30T10:49:52;45.08;;;24.20;;
79330;SDS011;68797;49.782;19.054;2024-01-30T10:52:37;42.42;;;22.90;;
79330;SDS011;68797;49.782;19.054;2024-01-30T10:55:13;52.22;;;24.75;;
79330;SDS011;68797;49.782;19.054;2024-01-30T10:57:50;52.60;;;27.80;;
79330;SDS011;68797;49.782;19.054;2024-01-30T11:00:31;56.30;;;25.90;;
79330;SDS011;68797;49.782;19.054;2024-01-30T11:03:20;54.97;;;24.48;;
79330;SDS011;68797;49.782;19.054;2024-01-30T11:05:53;45.83;;;22.38;;
79330;SDS011;68797;49.782;19.054;2024-01-30T11:08:31;54.90;;;24.58;;
79330;SDS011;68797;49.782;19.054;2024-01-30T11:11:08;52.50;;;24.35;;
79330;SDS011;68797;49.782;19.054;2024-01-30T11:13:45;50.55;;;23.05;;
79330;SDS011;68797;49.782;19.054;2024-01-30T11:16:31;51.00;;;24.17;;
79330;SDS011;68797;49.782;19.054;2024-01-30T11:19:10;61.60;;;24.85;;
79330;SDS011;68797;49.782;19.054;2024-01-30T11:21:43;58.42;;;29.67;;
79330;SDS011;68797;49.782;19.054;2024-01-30T11:24:23;55.22;;;25.80;;
79330;SDS011;68797;49.782;19.054;2024-01-30T11:26:59;44.15;;;21.30;;
79330;SDS011;68797;49.782;19.054;2024-01-30T11:29:43;53.60;;;24.23;;
79330;SDS011;68797;49.782;19.054;2024-01-30T11:32:26;48.08;;;22.65;;
79330;SDS011;68797;49.782;19.054;2024-01-30T11:35:00;49.03;;;22.27;;
79330;SDS011;68797;49.782;19.054;2024-01-30T11:37:42;45.53;;;23.05;;
79330;SDS011;68797;49.782;19.054;2024-01-30T11:40:21;45.20;;;22.35;;
79330;SDS011;68797;49.782;19.054;2024-01-30T11:42:52;52.90;;;25.10;;
79330;SDS011;68797;49.782;19.054;2024-01-30T11:45:23;54.65;;;23.88;;
79330;SDS011;68797;49.782;19.054;2024-01-30T11:47:56;52.67;;;23.27;;
79330;SDS011;68797;49.782;19.054;2024-01-30T11:50:42;47.00;;;21.52;;
79330;SDS011;68797;49.782;19.054;2024-01-30T11:53:19;44.17;;;22.83;;
79330;SDS011;68797;49.782;19.054;2024-01-30T11:55:55;47.22;;;22.02;;
79330;SDS011;68797;49.782;19.054;2024-01-30T11:58:31;48.42;;;22.85;;
79330;SDS011;68797;49.782;19.054;2024-01-30T12:01:11;42.90;;;22.27;;
79330;SDS011;68797;49.782;19.054;2024-01-30T12:03:51;52.38;;;21.75;;
79330;SDS011;68797;49.782;19.054;2024-01-30T12:06:41;47.92;;;21.90;;
79330;SDS011;68797;49.782;19.054;2024-01-30T12:09:22;44.45;;;20.77;;
79330;SDS011;68797;49.782;19.054;2024-01-30T12:12:00;43.90;;;18.98;;
79330;SDS011;68797;49.782;19.054;2024-01-30T12:14:35;38.65;;;18.27;;
79330;SDS011;68797;49.782;19.054;2024-01-30T12:17:22;37.35;;;18.70;;
79330;SDS011;68797;49.782;19.054;2024-01-30T12:20:09;38.47;;;18.77;;
79330;SDS011;68797;49.782;19.054;2024-01-30T12:23:01;21.65;;;10.70;;
79330;SDS011;68797;49.782;19.054;2024-01-30T12:25:29;21.63;;;11.27;;
79330;SDS011;68797;49.782;19.054;2024-01-30T12:27:58;30.90;;;13.23;;
79330;SDS011;68797;49.782;19.054;2024-01-30T12:30:31;22.55;;;8.80;;
79330;SDS011;68797;49.782;19.054;2024-01-30T12:33:15;7.93;;;3.95;;
79330;SDS011;68797;49.782;19.054;2024-01-30T12:36:03;19.20;;;8.02;;
79330;SDS011;68797;49.782;19.054;2024-01-30T12:38:34;26.38;;;11.25;;
79330;SDS011;68797;49.782;19.054;2024-01-30T12:41:06;11.05;;;5.38;;
79330;SDS011;68797;49.782;19.054;2024-01-30T12:43:41;20.58;;;8.60;;
79330;SDS011;68797;49.782;19.054;2024-01-30T12:46:29;25.20;;;10.57;;
79330;SDS011;68797;49.782;19.054;2024-01-30T12:49:05;22.60;;;9.43;;
79330;SDS011;68797;49.782;19.054;2024-01-30T12:51:40;20.92;;;10.90;;
79330;SDS011;68797;49.782;19.054;2024-01-30T12:54:15;27.88;;;13.07;;
79330;SDS011;68797;49.782;19.054;2024-01-30T12:56:49;19.90;;;10.50;;
79330;SDS011;68797;49.782;19.054;2024-01-30T12:59:23;23.70;;;11.93;;
79330;SDS011;68797;49.782;19.054;2024-01-30T13:01:59;19.13;;;10.85;;
79330;SDS011;68797;49.782;19.054;2024-01-30T13:04:37;21.98;;;10.00;;
79330;SDS011;68797;49.782;19.054;2024-01-30T13:07:11;16.67;;;8.93;;
79330;SDS011;68797;49.782;19.054;2024-01-30T13:09:49;19.85;;;9.65;;
79330;SDS011;68797;49.782;19.054;2024-01-30T13:12:20;15.30;;;6.88;;
79330;SDS011;68797;49.782;19.054;2024-01-30T13:17:44;16.67;;;6.85;;
79330;SDS011;68797;49.782;19.054;2024-01-30T13:20:23;12.82;;;6.63;;
79330;SDS011;68797;49.782;19.054;2024-01-30T13:22:55;11.75;;;6.15;;
79330;SDS011;68797;49.782;19.054;2024-01-30T13:25:38;10.48;;;5.35;;
79330;SDS011;68797;49.782;19.054;2024-01-30T13:28:10;7.43;;;3.30;;
79330;SDS011;68797;49.782;19.054;2024-01-30T13:31:07;8.07;;;3.65;;
79330;SDS011;68797;49.782;19.054;2024-01-30T13:33:45;6.65;;;3.30;;
79330;SDS011;68797;49.782;19.054;2024-01-30T13:36:19;7.18;;;2.72;;
79330;SDS011;68797;49.782;19.054;2024-01-30T13:38:48;6.63;;;3.42;;
79330;SDS011;68797;49.782;19.054;2024-01-30T13:41:21;6.40;;;2.80;;
79330;SDS011;68797;49.782;19.054;2024-01-30T13:43:52;3.85;;;2.22;;
79330;SDS011;68797;49.782;19.054;2024-01-30T13:46:48;3.05;;;2.08;;
79330;SDS011;68797;49.782;19.054;2024-01-30T13:49:20;8.48;;;3.72;;
79330;SDS011;68797;49.782;19.054;2024-01-30T13:51:55;11.43;;;5.40;;
79330;SDS011;68797;49.782;19.054;2024-01-30T13:54:50;11.25;;;4.68;;
79330;SDS011;68797;49.782;19.054;2024-01-30T13:57:28;12.80;;;5.03;;
79330;SDS011;68797;49.782;19.054;2024-01-30T14:00:14;4.30;;;2.40;;
79330;SDS011;68797;49.782;19.054;2024-01-30T14:02:50;9.02;;;3.80;;
79330;SDS011;68797;49.782;19.054;2024-01-30T14:05:24;15.88;;;5.47;;
79330;SDS011;68797;49.782;19.054;2024-01-30T14:08:02;35.05;;;12.57;;
79330;SDS011;68797;49.782;19.054;2024-01-30T14:10:38;209.45;;;68.45;;
79330;SDS011;68797;49.782;19.054;2024-01-30T14:13:16;19.25;;;9.02;;
79330;SDS011;68797;49.782;19.054;2024-01-30T14:15:45;55.22;;;32.42;;
79330;SDS011;68797;49.782;19.054;2024-01-30T14:18:23;124.72;;;68.18;;
79330;SDS011;68797;49.782;19.054;2024-01-30T14:20:58;64.88;;;39.75;;
79330;SDS011;68797;49.782;19.054;2024-01-30T14:23:32;41.75;;;25.20;;
79330;SDS011;68797;49.782;19.054;2024-01-30T14:26:05;49.20;;;34.58;;
79330;SDS011;68797;49.782;19.054;2024-01-30T14:28:47;3.78;;;2.30;;
79330;SDS011;68797;49.782;19.054;2024-01-30T14:31:34;5.10;;;3.40;;
79330;SDS011;68797;49.782;19.054;2024-01-30T14:34:11;4.47;;;2.70;;
79330;SDS011;68797;49.782;19.054;2024-01-30T14:36:53;5.38;;;2.20;;
79330;SDS011;68797;49.782;19.054;2024-01-30T14:39:28;9.10;;;3.67;;
79330;SDS011;68797;49.782;19.054;2024-01-30T14:42:04;7.93;;;3.97;;
79330;SDS011;68797;49.782;19.054;2024-01-30T14:44:44;8.32;;;3.45;;
79330;SDS011;68797;49.782;19.054;2024-01-30T14:47:17;7.55;;;2.97;;
79330;SDS011;68797;49.782;19.054;2024-01-30T14:49:53;8.95;;;4.00;;
79330;SDS011;68797;49.782;19.054;2024-01-30T14:52:26;4.70;;;1.92;;
79330;SDS011;68797;49.782;19.054;2024-01-30T14:54:59;5.13;;;1.70;;
79330;SDS011;68797;49.782;19.054;2024-01-30T14:57:36;10.32;;;4.70;;
79330;SDS011;68797;49.782;19.054;2024-01-30T15:02:41;16.73;;;5.60;;
79330;SDS011;68797;49.782;19.054;2024-01-30T15:05:21;3.53;;;1.52;;
79330;SDS011;68797;49.782;19.054;2024-01-30T15:07:52;4.07;;;2.00;;
79330;SDS011;68797;49.782;19.054;2024-01-30T15:10:28;6.95;;;2.85;;
79330;SDS011;68797;49.782;19.054;2024-01-30T15:13:08;3.33;;;2.10;;
79330;SDS011;68797;49.782;19.054;2024-01-30T15:15:51;4.72;;;2.42;;
79330;SDS011;68797;49.782;19.054;2024-01-30T15:18:22;5.07;;;2.90;;
79330;SDS011;68797;49.782;19.054;2024-01-30T15:20:59;4.22;;;1.92;;
79330;SDS011;68797;49.782;19.054;2024-01-30T15:26:07;6.30;;;2.70;;
79330;SDS011;68797;49.782;19.054;2024-01-30T15:28:44;4.15;;;2.78;;